Time;durP1;ratioP1;P1;durP2;ratioP2;P2;SDS_P1;SDS_P2;PMS_P1;PMS_P2;Temp;Humidity;BMP_temperature;BMP_pressure;BME280_temperature;BME280_humidity;BME280_pressure;Samples;Min_cycle;Max_cycle;Signal;HPM_P1;HPM_P2
2024/01/22 00:02:38;;;;;;;10.65;6.10;;;23.40;40.50;;;;;;6261555;27;85127;-61
2024/01/22 00:05:39;;;;;;;10.73;6.78;;;23.40;40.60;;;;;;6255371;27;80675;-61
2024/01/22 00:08:39;;;;;;;11.23;7.00;;;23.30;40.40;;;;;;6248893;27;81182;-60
2024/01/22 00:11:40;;;;;;;12.13;7.45;;;23.40;40.60;;;;;;6254647;27;81064;-61
2024/01/22 00:14:40;;;;;;;13.13;7.43;;;23.40;40.60;;;;;;6264834;27;81635;-65
2024/01/22 00:17:41;;;;;;;14.52;7.93;;;23.30;40.40;;;;;;6258684;27;80404;-65
2024/01/22 00:20:42;;;;;;;12.48;7.65;;;23.40;40.40;;;;;;6261233;27;81060;-64
2024/01/22 00:23:42;;;;;;;14.40;8.77;;;23.30;40.90;;;;;;6265128;27;80675;-63
2024/01/22 00:26:43;;;;;;;16.63;9.10;;;23.30;41.00;;;;;;6269744;27;81129;-62
2024/01/22 00:29:43;;;;;;;17.73;9.48;;;23.30;40.80;;;;;;6294957;27;80282;-63
2024/01/22 00:32:44;;;;;;;14.88;9.65;;;23.30;41.00;;;;;;6289561;27;80771;-64
2024/01/22 00:35:44;;;;;;;18.13;10.50;;;23.30;41.20;;;;;;6289455;27;80954;-63
2024/01/22 00:38:45;;;;;;;17.10;10.02;;;23.30;41.10;;;;;;6285334;27;88369;-64
2024/01/22 00:41:45;;;;;;;17.20;10.57;;;23.30;41.20;;;;;;6279684;27;85414;-65
2024/01/22 00:44:46;;;;;;;18.48;11.07;;;23.30;41.10;;;;;;6265407;27;84470;-66
2024/01/22 00:47:46;;;;;;;15.40;9.73;;;23.30;40.90;;;;;;6278537;27;83320;-65
2024/01/22 00:50:47;;;;;;;18.73;11.20;;;23.30;41.10;;;;;;6282951;27;82873;-62
2024/01/22 00:53:47;;;;;;;17.65;10.38;;;23.30;41.10;;;;;;6279594;27;83317;-46
2024/01/22 00:56:48;;;;;;;15.52;10.57;;;23.30;41.10;;;;;;6279666;27;83307;-46
2024/01/22 00:59:48;;;;;;;14.32;9.70;;;23.30;41.40;;;;;;6282461;27;84878;-46
2024/01/22 01:02:50;;;;;;;16.23;10.02;;;23.30;41.50;;;;;;6290592;27;81674;-45
2024/01/22 01:05:50;;;;;;;14.63;8.93;;;23.30;41.30;;;;;;6285043;27;83582;-48
2024/01/22 01:08:51;;;;;;;18.05;10.15;;;23.30;41.60;;;;;;6291900;27;82690;-44
2024/01/22 01:11:51;;;;;;;15.05;9.05;;;23.30;40.50;;;;;;6283740;27;83466;-56
2024/01/22 01:14:51;;;;;;;16.20;8.95;;;23.30;41.60;;;;;;6285137;27;82973;-56
2024/01/22 01:17:52;;;;;;;15.23;10.02;;;23.30;40.70;;;;;;6295884;27;81270;-55
2024/01/22 01:20:53;;;;;;;16.20;9.85;;;23.30;40.80;;;;;;6279630;27;82993;-57
2024/01/22 01:23:53;;;;;;;16.15;9.57;;;23.30;40.80;;;;;;6280465;27;82758;-56
2024/01/22 01:26:54;;;;;;;16.08;10.23;;;23.30;40.90;;;;;;6272934;27;81572;-58
2024/01/22 01:29:54;;;;;;;17.05;10.10;;;23.30;40.80;;;;;;6261354;27;84044;-62
2024/01/22 01:32:55;;;;;;;16.00;10.18;;;23.30;40.90;;;;;;6262210;27;83309;-61
2024/01/22 01:35:55;;;;;;;15.32;9.48;;;23.30;40.80;;;;;;6261225;27;82900;-60
2024/01/22 01:38:56;;;;;;;15.27;9.52;;;23.30;40.50;;;;;;6266207;27;82944;-59
2024/01/22 01:41:56;;;;;;;16.00;9.82;;;23.30;40.60;;;;;;6260203;27;80562;-60
2024/01/22 01:44:57;;;;;;;11.73;7.68;;;23.30;40.50;;;;;;6251995;27;80650;-60
2024/01/22 01:47:59;;;;;;;12.77;8.45;;;23.30;40.70;;;;;;6252366;27;81786;-64
2024/01/22 01:51:00;;;;;;;14.57;8.73;;;23.30;40.80;;;;;;6252051;27;80412;-63
2024/01/22 01:54:01;;;;;;;11.38;7.95;;;23.30;40.20;;;;;;6254149;27;80220;-62
2024/01/22 01:57:01;;;;;;;13.93;8.23;;;23.30;40.50;;;;;;6252808;27;80192;-62
2024/01/22 02:00:04;;;;;;;11.65;7.10;;;23.30;40.00;;;;;;6252456;27;80164;-62
2024/01/22 02:03:05;;;;;;;10.45;6.50;;;23.30;39.90;;;;;;6252335;27;80221;-61
2024/01/22 02:06:05;;;;;;;11.57;6.65;;;23.30;40.00;;;;;;6252426;27;82931;-61
2024/01/22 02:09:06;;;;;;;7.72;5.38;;;23.20;40.20;;;;;;6252743;27;80288;-61
2024/01/22 02:12:07;;;;;;;9.25;5.85;;;23.20;40.90;;;;;;6261532;27;80520;-61
2024/01/22 02:15:08;;;;;;;7.53;4.97;;;23.30;40.20;;;;;;6270960;27;80502;-62
2024/01/22 02:18:09;;;;;;;9.20;5.10;;;23.20;41.10;;;;;;6261981;27;80566;-60
2024/01/22 02:21:09;;;;;;;7.82;4.93;;;23.20;41.20;;;;;;6275828;27;80877;-60
2024/01/22 02:24:10;;;;;;;8.55;4.57;;;23.20;40.30;;;;;;6278895;27;81047;-61
2024/01/22 02:27:11;;;;;;;5.82;3.65;;;23.20;41.80;;;;;;6287283;27;80552;-60
2024/01/22 02:30:11;;;;;;;5.50;4.05;;;23.20;41.90;;;;;;6303243;27;83859;-60
2024/01/22 02:33:12;;;;;;;6.00;3.83;;;23.30;42.10;;;;;;6304394;27;80194;-60
2024/01/22 02:36:12;;;;;;;5.00;2.88;;;23.30;41.90;;;;;;6290610;27;80922;-60
2024/01/22 02:39:13;;;;;;;5.40;3.55;;;23.20;41.60;;;;;;6290761;27;80507;-61
2024/01/22 02:42:13;;;;;;;4.65;3.33;;;23.20;41.70;;;;;;6289664;27;80625;-61
2024/01/22 02:45:14;;;;;;;5.00;3.33;;;23.20;42.20;;;;;;6289332;27;80446;-61
2024/01/22 02:48:14;;;;;;;4.78;2.90;;;23.20;42.60;;;;;;6297435;27;81303;-61
2024/01/22 02:51:15;;;;;;;4.55;3.10;;;23.20;42.90;;;;;;6260818;27;80537;-60
2024/01/22 02:54:15;;;;;;;4.78;3.03;;;23.30;42.50;;;;;;6281536;27;87696;-61
2024/01/22 02:57:16;;;;;;;4.25;2.60;;;23.20;42.10;;;;;;6291352;27;81862;-60
2024/01/22 03:00:16;;;;;;;5.05;2.80;;;23.20;42.80;;;;;;6286530;27;82982;-59
2024/01/22 03:03:17;;;;;;;3.38;2.17;;;23.20;41.70;;;;;;6292258;27;80424;-60
2024/01/22 03:06:18;;;;;;;4.10;2.50;;;23.20;41.60;;;;;;6292345;27;80294;-61
2024/01/22 03:09:18;;;;;;;4.03;2.30;;;23.20;41.00;;;;;;6290513;27;80732;-61
2024/01/22 03:12:19;;;;;;;4.07;2.53;;;23.20;41.00;;;;;;6290791;27;80539;-61
2024/01/22 03:15:19;;;;;;;3.88;2.35;;;23.20;40.50;;;;;;6287243;27;80809;-63
2024/01/22 03:18:20;;;;;;;4.75;2.70;;;23.20;40.10;;;;;;6266103;27;80469;-61
2024/01/22 03:21:20;;;;;;;3.47;2.10;;;23.20;39.80;;;;;;6273394;27;84766;-57
2024/01/22 03:24:21;;;;;;;4.53;1.95;;;23.20;40.50;;;;;;6264435;27;80304;-58
2024/01/22 03:27:21;;;;;;;2.10;1.70;;;23.20;40.90;;;;;;6287233;27;80865;-59
2024/01/22 03:30:22;;;;;;;2.50;1.77;;;23.20;40.20;;;;;;6277263;27;82023;-60
2024/01/22 03:33:23;;;;;;;3.38;2.53;;;23.20;40.70;;;;;;6249481;27;81380;-60
2024/01/22 03:36:23;;;;;;;3.67;2.40;;;23.20;40.40;;;;;;6235059;28;82655;-60
2024/01/22 03:39:24;;;;;;;3.40;2.28;;;23.20;40.20;;;;;;6239227;28;80576;-60
2024/01/22 03:42:24;;;;;;;4.78;2.88;;;23.20;40.40;;;;;;6252851;28;80394;-60
2024/01/22 03:45:25;;;;;;;4.53;2.88;;;23.20;39.70;;;;;;6252113;28;80682;-61
2024/01/22 03:48:25;;;;;;;5.15;3.20;;;23.20;40.10;;;;;;6252741;28;83005;-60
2024/01/22 03:51:26;;;;;;;5.22;2.78;;;23.20;39.80;;;;;;6248338;28;80830;-59
2024/01/22 03:54:26;;;;;;;4.65;3.13;;;23.20;39.80;;;;;;6251727;28;81118;-60
2024/01/22 03:57:27;;;;;;;5.00;3.65;;;23.20;40.00;;;;;;6251469;28;82096;-44
2024/01/22 04:00:27;;;;;;;8.57;4.45;;;23.20;40.40;;;;;;6245003;28;81141;-46
2024/01/22 04:03:28;;;;;;;8.07;4.57;;;23.20;39.90;;;;;;6249376;28;80463;-45
2024/01/22 04:06:29;;;;;;;7.72;5.68;;;23.20;40.20;;;;;;6250726;28;80530;-48
2024/01/22 04:09:29;;;;;;;8.63;5.20;;;23.20;39.70;;;;;;6231629;28;80359;-44
2024/01/22 04:12:30;;;;;;;9.27;5.30;;;23.20;40.10;;;;;;6240892;28;80426;-46
2024/01/22 04:15:30;;;;;;;9.57;5.70;;;23.20;40.40;;;;;;6246802;28;80284;-54
2024/01/22 04:18:31;;;;;;;8.95;5.53;;;23.20;39.90;;;;;;6245647;28;80936;-55
2024/01/22 04:21:31;;;;;;;9.38;6.45;;;23.20;39.70;;;;;;6242182;28;80210;-53
2024/01/22 04:24:32;;;;;;;9.82;5.90;;;23.20;39.70;;;;;;6240867;28;80806;-55
2024/01/22 04:27:32;;;;;;;9.45;5.68;;;23.20;39.00;;;;;;6240991;27;80308;-56
2024/01/22 04:30:33;;;;;;;8.50;5.15;;;23.30;39.00;;;;;;6253055;27;82323;-56
2024/01/22 04:33:34;;;;;;;8.30;5.68;;;23.30;39.10;;;;;;6252251;27;82380;-45
2024/01/22 04:36:34;;;;;;;8.40;4.60;;;23.40;39.00;;;;;;6284713;27;81799;-47
2024/01/22 04:39:35;;;;;;;5.68;4.45;;;23.50;38.90;;;;;;6301607;27;80552;-48
2024/01/22 04:42:35;;;;;;;7.20;4.55;;;23.50;38.70;;;;;;6302555;27;81093;-47
2024/01/22 04:45:36;;;;;;;6.65;4.40;;;23.50;38.60;;;;;;6298687;27;80472;-45
2024/01/22 04:48:37;;;;;;;5.75;3.75;;;23.50;38.70;;;;;;6278121;27;80210;-47
2024/01/22 04:51:37;;;;;;;4.70;3.10;;;23.60;38.90;;;;;;6290443;27;80993;-48
2024/01/22 04:54:38;;;;;;;5.53;3.70;;;23.60;38.70;;;;;;6277455;27;80958;-49
2024/01/22 04:57:38;;;;;;;4.85;3.78;;;23.60;38.30;;;;;;6277639;27;81048;-45
2024/01/22 05:00:39;;;;;;;4.80;3.58;;;23.60;37.90;;;;;;6285610;27;81171;-48
2024/01/22 05:03:39;;;;;;;5.70;3.30;;;23.70;38.70;;;;;;6287925;27;82982;-48
2024/01/22 05:06:39;;;;;;;4.43;2.72;;;23.70;38.10;;;;;;6292606;27;83171;-48
2024/01/22 05:09:40;;;;;;;5.38;3.17;;;23.70;37.80;;;;;;6296229;27;83041;-67
2024/01/22 05:12:40;;;;;;;4.28;2.90;;;23.70;37.60;;;;;;6291666;27;81113;-66
2024/01/22 05:15:41;;;;;;;5.50;3.35;;;23.70;37.80;;;;;;6287805;27;80622;-69
2024/01/22 05:18:41;;;;;;;4.53;3.05;;;23.70;38.10;;;;;;6299283;27;80405;-69
2024/01/22 05:21:42;;;;;;;5.90;3.10;;;23.70;38.10;;;;;;6289989;27;80429;-68
2024/01/22 05:24:42;;;;;;;3.47;2.50;;;23.70;38.30;;;;;;6286321;27;80709;-60
2024/01/22 05:27:47;;;;;;;6.78;3.33;;;23.70;38.90;;;;;;6297264;27;82127;-53
2024/01/22 05:30:47;;;;;;;9.35;2.67;;;23.70;39.00;;;;;;6283140;27;80547;-54
2024/01/22 05:33:48;;;;;;;3.03;2.00;;;23.70;39.20;;;;;;6281977;27;80576;-50
2024/01/22 05:36:49;;;;;;;4.07;2.65;;;23.70;39.30;;;;;;6286519;27;80564;-53
2024/01/22 05:39:49;;;;;;;3.90;2.70;;;23.70;39.30;;;;;;6290933;27;81662;-50
2024/01/22 05:42:50;;;;;;;4.55;3.05;;;23.70;40.10;;;;;;6290385;27;80467;-56
2024/01/22 05:45:50;;;;;;;7.30;4.05;;;23.70;39.60;;;;;;6286488;27;81250;-50
2024/01/22 05:48:51;;;;;;;12.60;4.53;;;23.70;39.70;;;;;;6279801;27;84821;-54
2024/01/22 05:51:51;;;;;;;11.45;5.20;;;23.60;40.20;;;;;;6295091;27;80700;-54
2024/01/22 05:54:52;;;;;;;9.88;5.82;;;23.60;40.10;;;;;;6297422;27;81800;-55
2024/01/22 05:57:52;;;;;;;9.70;6.25;;;23.60;39.80;;;;;;6288339;27;81808;-55
2024/01/22 06:00:53;;;;;;;10.80;6.35;;;23.60;39.90;;;;;;6287192;27;81140;-54
2024/01/22 06:03:53;;;;;;;13.73;7.35;;;23.50;39.60;;;;;;6293917;27;80898;-52
2024/01/22 06:06:54;;;;;;;12.88;7.70;;;23.50;39.80;;;;;;6287219;27;81132;-50
2024/01/22 06:09:54;;;;;;;10.80;7.15;;;23.50;39.90;;;;;;6276914;27;81410;-52
2024/01/22 06:12:55;;;;;;;16.35;9.52;;;23.40;39.50;;;;;;6299414;27;80910;-52
2024/01/22 06:15:55;;;;;;;13.60;8.73;;;23.30;39.20;;;;;;6287734;27;81237;-53
2024/01/22 06:18:56;;;;;;;15.68;9.90;;;23.30;39.20;;;;;;6291079;27;80240;-54
2024/01/22 06:21:57;;;;;;;15.63;9.48;;;23.20;39.30;;;;;;6276897;27;82173;-52
2024/01/22 06:24:57;;;;;;;18.63;10.00;;;23.20;38.90;;;;;;6281571;27;80997;-49
2024/01/22 06:27:58;;;;;;;17.55;11.43;;;23.20;38.70;;;;;;6292853;27;83879;-49
2024/01/22 06:30:58;;;;;;;21.27;11.73;;;23.20;38.20;;;;;;6289873;27;85881;-56
2024/01/22 06:33:59;;;;;;;17.63;12.32;;;23.20;37.50;;;;;;6295744;27;82984;-56
2024/01/22 06:36:59;;;;;;;20.70;12.50;;;23.10;37.30;;;;;;6295559;27;82996;-50
2024/01/22 06:40:00;;;;;;;21.63;12.48;;;23.20;37.20;;;;;;6292695;27;83503;-54
2024/01/22 06:43:01;;;;;;;19.42;12.82;;;23.10;37.00;;;;;;6295452;27;83440;-64
2024/01/22 06:46:03;;;;;;;24.42;14.98;;;23.10;37.10;;;;;;6280886;27;84773;-63
2024/01/22 06:49:03;;;;;;;24.92;15.10;;;23.10;36.90;;;;;;6289729;27;83244;-71
2024/01/22 06:52:03;;;;;;;30.55;16.08;;;23.10;36.60;;;;;;6295253;27;83079;-72
2024/01/22 06:55:04;;;;;;;27.05;16.95;;;23.10;36.40;;;;;;6293142;27;83921;-64
2024/01/22 06:58:05;;;;;;;25.90;16.10;;;23.10;36.30;;;;;;6296163;27;83512;-71
2024/01/22 07:01:05;;;;;;;26.92;15.77;;;23.00;36.30;;;;;;6297616;27;83052;-50
2024/01/22 07:04:06;;;;;;;25.63;16.58;;;23.00;36.40;;;;;;6296838;27;83643;-49
2024/01/22 07:07:06;;;;;;;28.85;17.98;;;23.10;36.40;;;;;;6295994;27;83522;-50
2024/01/22 07:10:07;;;;;;;27.90;18.50;;;23.00;36.40;;;;;;6294564;27;83296;-53
2024/01/22 07:13:09;;;;;;;27.80;17.65;;;23.00;36.40;;;;;;6295099;27;85685;-53
2024/01/22 07:16:09;;;;;;;27.90;16.67;;;23.00;36.30;;;;;;6295546;27;83977;-50
2024/01/22 07:19:10;;;;;;;28.98;18.17;;;23.00;36.40;;;;;;6303603;27;83114;-49
2024/01/22 07:22:10;;;;;;;24.98;15.77;;;23.00;36.40;;;;;;6296806;27;84865;-51
2024/01/22 07:25:11;;;;;;;26.35;15.45;;;23.10;37.80;;;;;;6275480;27;83502;-50
2024/01/22 07:28:11;;;;;;;25.00;14.82;;;23.10;38.40;;;;;;6288945;27;83643;-48
2024/01/22 07:31:12;;;;;;;21.25;13.63;;;23.10;38.40;;;;;;6277055;27;82944;-51
2024/01/22 07:34:12;;;;;;;27.88;15.85;;;23.10;38.50;;;;;;6283618;27;85075;-52
2024/01/22 07:37:13;;;;;;;24.80;15.30;;;23.10;38.20;;;;;;6262494;27;83287;-53
2024/01/22 07:40:14;;;;;;;25.20;17.08;;;23.10;38.20;;;;;;6291051;27;83805;-50
2024/01/22 07:43:14;;;;;;;27.27;16.15;;;23.20;37.60;;;;;;6277701;27;83452;-51
2024/01/22 07:46:15;;;;;;;28.23;15.73;;;23.20;37.30;;;;;;6283530;27;82991;-53
2024/01/22 07:49:16;;;;;;;26.98;16.85;;;23.20;37.20;;;;;;6298827;27;86617;-55
2024/01/22 07:52:16;;;;;;;24.25;15.98;;;23.30;37.30;;;;;;6303045;27;83295;-55
2024/01/22 07:55:17;;;;;;;26.50;16.33;;;23.30;37.20;;;;;;6297362;27;82954;-52
2024/01/22 07:58:17;;;;;;;24.30;15.32;;;23.40;37.20;;;;;;6295105;27;82984;-51
2024/01/22 08:01:18;;;;;;;23.38;15.23;;;23.40;37.00;;;;;;6297351;27;82994;-51
2024/01/22 08:04:18;;;;;;;22.02;14.20;;;23.50;36.80;;;;;;6285485;27;85158;-51
2024/01/22 08:07:19;;;;;;;21.60;13.60;;;23.50;36.70;;;;;;6279026;27;83394;-51
2024/01/22 08:10:19;;;;;;;19.83;12.70;;;23.60;36.90;;;;;;6295999;27;84945;-53
2024/01/22 08:13:20;;;;;;;17.75;12.30;;;23.60;36.80;;;;;;6294603;27;84647;-62
2024/01/22 08:16:20;;;;;;;18.60;11.40;;;23.60;36.60;;;;;;6283730;27;83038;-63
2024/01/22 08:19:21;;;;;;;16.05;10.95;;;23.70;37.10;;;;;;6288641;27;88137;-64
2024/01/22 08:22:21;;;;;;;16.15;10.02;;;23.70;36.70;;;;;;6293960;27;83498;-67
2024/01/22 08:25:27;;;;;;;15.85;10.30;;;23.80;36.80;;;;;;6292928;27;84599;-63
2024/01/22 08:28:28;;;;;;;15.98;9.68;;;23.80;37.00;;;;;;6292999;27;84262;-64
2024/01/22 08:31:28;;;;;;;14.60;9.65;;;23.90;37.00;;;;;;6295893;27;82867;-67
2024/01/22 08:34:30;;;;;;;15.68;9.18;;;24.00;36.80;;;;;;6292208;27;81897;-68
2024/01/22 08:37:31;;;;;;;14.45;8.60;;;24.00;37.00;;;;;;6275926;27;80547;-68
2024/01/22 08:40:31;;;;;;;12.60;8.02;;;24.00;37.00;;;;;;6276728;27;81083;-69
2024/01/22 08:43:32;;;;;;;12.93;7.93;;;24.00;37.20;;;;;;6277381;27;80310;-67
2024/01/22 08:46:32;;;;;;;12.63;8.13;;;24.10;37.10;;;;;;6288488;27;80916;-68
2024/01/22 08:49:33;;;;;;;10.55;6.93;;;24.10;36.40;;;;;;6292295;27;80248;-68
2024/01/22 08:52:33;;;;;;;15.25;6.00;;;24.10;36.20;;;;;;6277085;27;80452;-68
2024/01/22 08:55:34;;;;;;;12.93;7.15;;;24.20;36.50;;;;;;6276585;27;80897;-68
2024/01/22 08:58:34;;;;;;;11.68;7.22;;;24.20;36.40;;;;;;6276919;27;80736;-69
2024/01/22 09:01:35;;;;;;;9.82;6.72;;;24.20;36.60;;;;;;6277146;27;81686;-67
2024/01/22 09:04:35;;;;;;;10.23;6.40;;;24.30;37.20;;;;;;6277818;27;83602;-66
2024/01/22 09:07:36;;;;;;;8.98;6.43;;;24.30;37.20;;;;;;6300436;27;80681;-62
2024/01/22 09:10:36;;;;;;;9.48;5.70;;;24.40;37.60;;;;;;6301165;27;80401;-60
2024/01/22 09:13:40;;;;;;;9.15;5.07;;;24.40;37.80;;;;;;6305912;27;80178;-64
2024/01/22 09:16:40;;;;;;;11.30;5.20;;;24.40;38.00;;;;;;6305939;27;80383;-64
2024/01/22 09:19:41;;;;;;;7.68;4.85;;;24.50;38.40;;;;;;6293118;27;80790;-61
2024/01/22 09:22:41;;;;;;;6.50;4.70;;;24.60;38.90;;;;;;6275608;27;80355;-62
2024/01/22 09:25:42;;;;;;;8.57;5.00;;;24.60;39.10;;;;;;6275354;27;80341;-67
2024/01/22 09:28:42;;;;;;;6.20;4.03;;;24.70;39.40;;;;;;6275210;27;80452;-69
2024/01/22 09:31:43;;;;;;;6.65;4.25;;;24.70;39.10;;;;;;6274863;27;80869;-68
2024/01/22 09:34:44;;;;;;;6.07;3.80;;;24.70;38.70;;;;;;6272551;27;80410;-66
2024/01/22 09:37:44;;;;;;;11.18;5.15;;;24.70;38.90;;;;;;6259650;27;80885;-66
2024/01/22 09:40:45;;;;;;;5.22;3.70;;;24.70;38.80;;;;;;6264059;27;81360;-65
2024/01/22 09:43:45;;;;;;;7.28;4.05;;;24.80;39.00;;;;;;6236665;27;82685;-68
2024/01/22 09:46:46;;;;;;;6.80;4.47;;;24.90;39.70;;;;;;6293263;27;80407;-51
2024/01/22 09:49:46;;;;;;;7.63;4.32;;;24.90;38.80;;;;;;6292969;27;80643;-49
2024/01/22 09:52:47;;;;;;;4.45;3.33;;;24.90;38.90;;;;;;6269955;27;85418;-48
2024/01/22 09:55:48;;;;;;;7.10;3.38;;;24.90;38.90;;;;;;6289450;27;81014;-50
2024/01/22 09:58:48;;;;;;;5.47;3.88;;;24.90;38.80;;;;;;6296470;27;80981;-50
2024/01/22 10:01:49;;;;;;;4.70;3.30;;;25.00;38.90;;;;;;6301833;27;80461;-49
2024/01/22 10:04:49;;;;;;;6.20;3.45;;;25.00;38.70;;;;;;6302117;27;80816;-62
2024/01/22 10:07:50;;;;;;;4.75;3.38;;;25.10;38.60;;;;;;6291110;27;81037;-62
2024/01/22 10:10:50;;;;;;;4.47;2.88;;;25.00;38.70;;;;;;6293098;27;80754;-62
2024/01/22 10:13:51;;;;;;;5.78;3.20;;;25.10;38.40;;;;;;6303526;27;80596;-62
2024/01/22 10:16:51;;;;;;;3.95;2.85;;;25.00;38.20;;;;;;6302254;27;80897;-61
2024/01/22 10:19:54;;;;;;;4.38;2.90;;;24.90;38.30;;;;;;6292135;27;80324;-61
2024/01/22 10:22:54;;;;;;;5.38;3.00;;;24.90;38.70;;;;;;6290148;27;80449;-66
2024/01/22 10:25:55;;;;;;;4.47;2.90;;;25.00;39.10;;;;;;6293796;27;80546;-67
2024/01/22 10:28:55;;;;;;;3.63;2.53;;;25.00;39.20;;;;;;6284045;27;81509;-67
2024/01/22 10:31:56;;;;;;;9.90;3.22;;;24.90;39.20;;;;;;6285523;27;80572;-68
2024/01/22 10:34:57;;;;;;;6.00;2.60;;;24.90;39.10;;;;;;6287922;27;80587;-67
2024/01/22 10:37:57;;;;;;;4.03;2.45;;;24.80;39.10;;;;;;6274385;27;80490;-65
2024/01/22 10:40:58;;;;;;;3.70;2.50;;;24.80;38.90;;;;;;6280878;27;80387;-53
2024/01/22 10:43:58;;;;;;;3.53;2.15;;;24.70;39.10;;;;;;6261053;27;82346;-54
2024/01/22 10:46:59;;;;;;;3.28;2.58;;;24.70;39.00;;;;;;6273138;27;80437;-52
2024/01/22 10:49:59;;;;;;;3.70;2.20;;;24.70;39.20;;;;;;6287124;27;80656;-54
2024/01/22 10:53:00;;;;;;;3.17;2.20;;;24.70;38.90;;;;;;6311654;27;80261;-54
2024/01/22 10:56:00;;;;;;;2.75;2.03;;;24.80;38.40;;;;;;6304500;27;81537;-53
2024/01/22 10:59:01;;;;;;;5.30;1.95;;;24.70;39.10;;;;;;6302659;27;82371;-66
2024/01/22 11:02:01;;;;;;;4.18;2.40;;;24.80;38.40;;;;;;6303316;27;85490;-65
2024/01/22 11:05:02;;;;;;;3.83;2.42;;;24.80;38.70;;;;;;6302271;27;80394;-65
2024/01/22 11:08:02;;;;;;;2.42;1.83;;;24.80;38.80;;;;;;6301434;27;80577;-66
2024/01/22 11:11:03;;;;;;;2.67;2.28;;;24.70;38.60;;;;;;6303887;27;80333;-66
2024/01/22 11:14:03;;;;;;;3.80;2.45;;;24.70;38.50;;;;;;6300219;27;80387;-69
2024/01/22 11:17:05;;;;;;;3.50;2.25;;;24.60;38.20;;;;;;6301766;27;80908;-65
2024/01/22 11:20:05;;;;;;;2.38;2.15;;;24.60;38.00;;;;;;6302148;27;80442;-65
2024/01/22 11:23:08;;;;;;;3.42;1.90;;;24.60;38.10;;;;;;6294501;27;81362;-65
2024/01/22 11:26:09;;;;;;;2.63;1.80;;;24.60;38.00;;;;;;6292931;27;80523;-66
2024/01/22 11:29:10;;;;;;;2.97;1.88;;;24.60;37.70;;;;;;6282795;27;81299;-66
2024/01/22 11:32:10;;;;;;;3.17;2.35;;;24.60;37.40;;;;;;6283552;27;80244;-66
2024/01/22 11:35:11;;;;;;;2.42;1.70;;;24.50;38.10;;;;;;6278448;27;80877;-53
2024/01/22 11:38:11;;;;;;;4.40;2.35;;;24.50;37.50;;;;;;6299126;27;80354;-55
2024/01/22 11:41:12;;;;;;;3.55;2.67;;;24.40;37.40;;;;;;6295984;27;80429;-52
2024/01/22 11:44:12;;;;;;;6.03;2.22;;;24.40;37.30;;;;;;6295582;27;80900;-52
2024/01/22 11:47:13;;;;;;;4.90;2.70;;;24.40;37.60;;;;;;6277899;27;80849;-53
2024/01/22 11:50:13;;;;;;;3.92;2.10;;;24.30;37.10;;;;;;6277796;27;82230;-52
2024/01/22 11:53:14;;;;;;;4.10;2.45;;;24.30;37.30;;;;;;6290907;27;80874;-50
2024/01/22 11:56:14;;;;;;;3.75;2.40;;;24.30;37.20;;;;;;6278389;27;80871;-54
2024/01/22 11:59:15;;;;;;;3.63;2.50;;;24.30;37.30;;;;;;6286849;27;80126;-53
2024/01/22 12:02:15;;;;;;;3.80;2.47;;;24.20;37.30;;;;;;6300892;27;80775;-54
2024/01/22 12:05:19;;;;;;;4.32;2.50;;;24.20;37.30;;;;;;6299126;27;81470;-54
2024/01/22 12:08:19;;;;;;;3.90;2.40;;;24.20;37.30;;;;;;6300263;27;80396;-56
2024/01/22 12:11:20;;;;;;;3.45;2.28;;;24.20;37.20;;;;;;6301467;27;80893;-49
2024/01/22 12:14:20;;;;;;;2.75;2.05;;;24.20;37.10;;;;;;6300081;27;80450;-55
2024/01/22 12:17:21;;;;;;;3.50;2.30;;;24.20;37.00;;;;;;6298116;27;80515;-53
2024/01/22 12:20:21;;;;;;;2.58;2.13;;;24.20;37.00;;;;;;6296581;27;81366;-54
2024/01/22 12:23:22;;;;;;;3.35;2.13;;;24.20;37.00;;;;;;6301462;27;80816;-53
2024/01/22 12:26:24;;;;;;;3.10;2.17;;;24.10;36.90;;;;;;6289948;27;81592;-54
2024/01/22 12:29:24;;;;;;;3.40;2.42;;;24.10;36.90;;;;;;6290574;27;80763;-52
2024/01/22 12:32:25;;;;;;;4.20;2.30;;;24.10;36.90;;;;;;6290448;27;82847;-55
2024/01/22 12:35:25;;;;;;;3.90;2.30;;;24.10;36.90;;;;;;6283046;27;80873;-54
2024/01/22 12:38:26;;;;;;;2.67;1.85;;;24.10;37.00;;;;;;6276488;27;80697;-51
2024/01/22 12:41:26;;;;;;;2.38;1.90;;;24.00;37.00;;;;;;6277642;27;80500;-54
2024/01/22 12:44:27;;;;;;;2.92;1.80;;;24.00;36.60;;;;;;6277787;27;80527;-53
2024/01/22 12:47:27;;;;;;;6.13;2.20;;;24.00;37.00;;;;;;6276251;27;81818;-52
2024/01/22 12:50:32;;;;;;;4.68;2.03;;;24.00;37.20;;;;;;6276883;27;80847;-62
2024/01/22 12:53:33;;;;;;;3.28;2.10;;;24.00;37.10;;;;;;6276303;27;81840;-63
2024/01/22 12:56:34;;;;;;;2.95;2.10;;;24.10;37.10;;;;;;6278042;27;80499;-63
2024/01/22 12:59:35;;;;;;;2.65;1.95;;;24.00;36.60;;;;;;6277952;27;80549;-63
2024/01/22 13:02:38;;;;;;;4.72;2.53;;;24.00;36.30;;;;;;6259927;27;81119;-63
2024/01/22 13:05:40;;;;;;;3.72;1.75;;;24.00;36.30;;;;;;6277506;27;80767;-62
2024/01/22 13:08:41;;;;;;;2.40;1.90;;;24.10;36.00;;;;;;6278058;27;82554;-63
2024/01/22 13:11:44;;;;;;;3.65;2.03;;;24.10;36.20;;;;;;6278299;27;81659;-63
2024/01/22 13:14:44;;;;;;;2.47;2.10;;;24.10;35.90;;;;;;6279230;27;80739;-63
2024/01/22 13:17:46;;;;;;;2.58;1.70;;;24.10;36.10;;;;;;6299171;27;80330;-64
2024/01/22 13:20:47;;;;;;;3.97;2.35;;;24.00;35.80;;;;;;6296601;27;80941;-63
2024/01/22 13:23:48;;;;;;;2.95;2.03;;;24.00;35.60;;;;;;6291568;27;80198;-62
2024/01/22 13:26:48;;;;;;;3.83;1.88;;;24.00;35.40;;;;;;6268564;27;80700;-52
2024/01/22 13:29:49;;;;;;;3.45;1.98;;;24.10;34.90;;;;;;6289285;27;80331;-52
2024/01/22 13:32:49;;;;;;;3.80;2.10;;;24.20;34.90;;;;;;6290834;27;80422;-50
2024/01/22 13:35:50;;;;;;;2.78;1.70;;;24.30;34.70;;;;;;6283979;27;80991;-52
2024/01/22 13:38:50;;;;;;;2.80;1.90;;;24.30;34.60;;;;;;6300485;27;80369;-53
2024/01/22 13:41:51;;;;;;;5.00;2.03;;;24.20;34.70;;;;;;6276545;27;80288;-55
2024/01/22 13:44:51;;;;;;;3.72;2.22;;;24.20;34.70;;;;;;6298833;27;87438;-66
2024/01/22 13:47:52;;;;;;;2.63;1.83;;;24.10;34.40;;;;;;6293566;27;80503;-67
2024/01/22 13:50:53;;;;;;;3.03;1.98;;;24.10;34.00;;;;;;6288870;27;79866;-68
2024/01/22 13:53:53;;;;;;;2.97;1.90;;;24.10;34.10;;;;;;6276789;27;80057;-64
2024/01/22 13:56:53;;;;;;;2.25;1.85;;;24.00;34.00;;;;;;6278166;27;80682;-64
2024/01/22 13:59:54;;;;;;;2.80;1.60;;;24.00;33.70;;;;;;6287939;27;80631;-64
2024/01/22 14:02:54;;;;;;;2.63;1.88;;;24.00;33.60;;;;;;6276591;27;82978;-48
2024/01/22 14:05:55;;;;;;;5.35;2.40;;;24.00;33.60;;;;;;6289467;27;80348;-52
2024/01/22 14:08:55;;;;;;;2.28;1.60;;;24.00;33.50;;;;;;6276049;27;80312;-53
2024/01/22 14:11:56;;;;;;;3.17;2.03;;;23.90;34.10;;;;;;6284150;27;83614;-52
2024/01/22 14:14:57;;;;;;;2.00;1.45;;;23.90;33.40;;;;;;6284728;27;80526;-50
2024/01/22 14:17:57;;;;;;;2.60;1.75;;;23.80;34.40;;;;;;6278247;27;80356;-51
2024/01/22 14:20:58;;;;;;;2.88;2.10;;;23.90;33.70;;;;;;6293682;27;81256;-66
2024/01/22 14:23:58;;;;;;;3.13;2.08;;;23.80;33.40;;;;;;6304905;27;80950;-66
2024/01/22 14:26:59;;;;;;;3.90;1.60;;;23.80;33.40;;;;;;6287979;27;81645;-68
2024/01/22 14:30:01;;;;;;;3.38;1.60;;;23.80;33.30;;;;;;6280900;27;80320;-67
2024/01/22 14:33:01;;;;;;;3.40;1.80;;;23.80;33.10;;;;;;6280969;27;81437;-66
2024/01/22 14:36:02;;;;;;;3.80;2.17;;;23.80;33.20;;;;;;6283097;27;81606;-66
2024/01/22 14:39:02;;;;;;;2.47;1.42;;;23.80;33.10;;;;;;6301439;27;80524;-66
2024/01/22 14:42:03;;;;;;;3.10;1.67;;;23.80;33.30;;;;;;6279853;27;80719;-67
2024/01/22 14:45:03;;;;;;;2.15;1.77;;;23.80;33.20;;;;;;6291526;27;81744;-67
2024/01/22 14:48:04;;;;;;;2.50;2.00;;;23.80;33.00;;;;;;6301927;27;80940;-67
2024/01/22 14:51:04;;;;;;;3.20;1.80;;;23.80;32.90;;;;;;6292259;27;81356;-67
2024/01/22 14:54:05;;;;;;;2.30;1.60;;;23.70;32.90;;;;;;6296046;27;80467;-68
2024/01/22 14:57:05;;;;;;;9.07;2.00;;;23.70;33.00;;;;;;6297806;27;80570;-68
2024/01/22 15:00:06;;;;;;;8.60;2.00;;;23.70;33.40;;;;;;6293991;27;80395;-69
2024/01/22 15:03:07;;;;;;;14.13;2.15;;;23.70;34.60;;;;;;6298427;27;80779;-66
2024/01/22 15:06:07;;;;;;;5.97;2.50;;;23.70;35.10;;;;;;6294133;27;81025;-68
2024/01/22 15:09:12;;;;;;;5.75;2.13;;;23.70;34.50;;;;;;6295406;27;80414;-71
2024/01/22 15:12:13;;;;;;;4.03;2.10;;;23.70;34.50;;;;;;6300221;27;83476;-71
2024/01/22 15:15:13;;;;;;;6.25;3.17;;;23.70;34.50;;;;;;6300470;27;83010;-52
2024/01/22 15:18:14;;;;;;;3.42;2.17;;;23.80;34.90;;;;;;6303370;27;81808;-51
2024/01/22 15:21:17;;;;;;;6.18;2.40;;;23.80;35.10;;;;;;6294521;27;81976;-55
2024/01/22 15:24:17;;;;;;;6.03;2.10;;;23.80;35.20;;;;;;6298840;27;81571;-55
2024/01/22 15:27:18;;;;;;;3.42;1.85;;;23.80;35.40;;;;;;6300659;27;80974;-51
2024/01/22 15:30:19;;;;;;;4.30;2.05;;;23.80;35.30;;;;;;6305290;27;81706;-52
2024/01/22 15:33:19;;;;;;;4.22;2.15;;;23.80;35.60;;;;;;6291256;27;80480;-52